createdAt,value
2022-08-17T00:00:34.336Z,12.63
2022-08-17T00:03:10.065Z,12.30
2022-08-17T00:05:41.891Z,12.35
2022-08-17T00:08:09.994Z,13.32
2022-08-17T00:10:38.608Z,13.63
2022-08-17T00:13:08.723Z,13.43
2022-08-17T00:15:36.721Z,13.90
2022-08-17T00:19:06.231Z,12.95
2022-08-17T00:20:55.501Z,13.00
2022-08-17T00:23:24.429Z,11.93
2022-08-17T00:25:53.459Z,12.48
2022-08-17T00:28:22.123Z,14.10
2022-08-17T00:30:53.460Z,13.85
2022-08-17T00:33:26.000Z,13.00
2022-08-17T00:35:54.534Z,13.95
2022-08-17T00:38:23.712Z,14.77
2022-08-17T00:40:55.869Z,13.85
2022-08-17T00:43:30.450Z,14.02
2022-08-17T00:45:58.988Z,14.38
2022-08-17T00:48:30.015Z,16.25
2022-08-17T00:51:04.400Z,15.13
2022-08-17T00:53:34.912Z,14.15
2022-08-17T00:56:07.870Z,14.23
2022-08-17T00:58:38.524Z,14.98
2022-08-17T01:01:10.041Z,16.00
2022-08-17T01:03:40.692Z,15.73
2022-08-17T01:06:10.221Z,14.20
2022-08-17T01:08:40.515Z,14.13
2022-08-17T01:11:09.482Z,14.70
2022-08-17T01:13:41.923Z,14.00
2022-08-17T01:16:16.758Z,15.32
2022-08-17T01:18:48.903Z,15.05
2022-08-17T01:21:23.784Z,15.10
2022-08-17T01:23:53.362Z,15.55
2022-08-17T01:26:21.539Z,15.30
2022-08-17T01:28:55.393Z,15.48
2022-08-17T01:31:26.296Z,15.48
2022-08-17T01:33:54.730Z,15.48
2022-08-17T01:36:22.974Z,15.70
2022-08-17T01:38:52.204Z,15.35
2022-08-17T01:41:22.699Z,16.58
2022-08-17T01:43:55.437Z,15.55
2022-08-17T01:46:28.182Z,16.17
2022-08-17T01:48:57.831Z,15.75
2022-08-17T01:51:27.574Z,17.00
2022-08-17T01:54:00.713Z,17.02
2022-08-17T01:56:31.196Z,16.83
2022-08-17T01:58:59.159Z,16.58
2022-08-17T02:01:29.302Z,15.80
2022-08-17T02:04:00.467Z,15.35
2022-08-17T02:06:31.634Z,16.70
2022-08-17T02:09:16.749Z,15.40
2022-08-17T02:11:46.279Z,16.60
2022-08-17T02:14:14.856Z,16.15
2022-08-17T02:16:43.345Z,16.40
2022-08-17T02:19:13.823Z,15.98
2022-08-17T02:21:43.808Z,16.85
2022-08-17T02:24:16.885Z,15.85
2022-08-17T02:26:46.428Z,16.00
2022-08-17T02:29:15.848Z,15.25
2022-08-17T02:31:44.646Z,15.77
2022-08-17T02:34:12.953Z,15.75
2022-08-17T02:36:40.930Z,16.33
2022-08-17T02:39:11.075Z,16.10
2022-08-17T02:41:41.212Z,16.20
2022-08-17T02:44:09.160Z,15.30
2022-08-17T02:46:37.403Z,16.35
2022-08-17T02:49:06.327Z,16.30
2022-08-17T02:51:35.345Z,15.68
2022-08-17T02:54:39.717Z,15.43
2022-08-17T02:56:53.620Z,15.93
2022-08-17T02:59:21.569Z,18.48
2022-08-17T03:01:49.589Z,17.50
2022-08-17T03:04:17.555Z,16.42
2022-08-17T03:06:45.548Z,17.48
2022-08-17T03:09:13.408Z,17.45
2022-08-17T03:11:41.477Z,16.48
2022-08-17T03:14:10.884Z,16.10
2022-08-17T03:16:38.826Z,16.13
2022-08-17T03:19:07.203Z,16.08
2022-08-17T03:21:35.201Z,16.38
2022-08-17T03:24:08.766Z,16.63
2022-08-17T03:26:37.256Z,17.48
2022-08-17T03:29:05.434Z,17.00
2022-08-17T03:31:36.949Z,17.00
2022-08-17T03:34:05.384Z,16.50
2022-08-17T03:36:36.220Z,17.10
2022-08-17T03:39:04.300Z,16.77
2022-08-17T03:41:32.290Z,19.42
2022-08-17T03:44:00.299Z,19.15
2022-08-17T03:46:45.676Z,20.70
2022-08-17T03:49:32.194Z,18.30
2022-08-17T03:52:17.630Z,19.17
2022-08-17T03:55:04.142Z,20.33
2022-08-17T03:57:32.987Z,20.42
2022-08-17T04:00:00.956Z,19.55
2022-08-17T04:02:31.742Z,20.05
2022-08-17T04:05:01.750Z,21.45
2022-08-17T04:07:31.951Z,19.45
2022-08-17T04:10:00.615Z,19.13
2022-08-17T04:12:31.075Z,18.83
2022-08-17T04:14:59.321Z,19.05
2022-08-17T04:17:29.179Z,20.95
2022-08-17T04:19:57.412Z,21.60
2022-08-17T04:22:31.963Z,20.23
2022-08-17T04:25:04.158Z,19.67
2022-08-17T04:27:32.201Z,18.33
2022-08-17T04:30:00.115Z,22.83
2022-08-17T04:33:00.469Z,21.15
2022-08-17T04:35:20.243Z,21.70
2022-08-17T04:37:49.930Z,20.33
2022-08-17T04:40:35.641Z,23.25
2022-08-17T04:43:05.346Z,24.45
2022-08-17T04:45:33.259Z,24.92
2022-08-17T04:48:01.537Z,22.83
2022-08-17T04:50:29.447Z,22.10
2022-08-17T04:52:58.929Z,23.23
2022-08-17T04:55:27.285Z,21.60
2022-08-17T04:57:55.622Z,20.98
2022-08-17T05:00:25.776Z,18.95
2022-08-17T05:02:56.341Z,23.35
2022-08-17T05:05:27.066Z,21.08
2022-08-17T05:07:56.338Z,21.88
2022-08-17T05:10:27.520Z,20.25
2022-08-17T05:12:59.837Z,21.88
2022-08-17T05:15:28.422Z,21.48
2022-08-17T05:18:01.440Z,20.33
2022-08-17T05:20:29.995Z,21.48
2022-08-17T05:23:00.328Z,18.83
2022-08-17T05:25:36.254Z,18.42
2022-08-17T05:28:06.656Z,18.92
2022-08-17T05:30:35.931Z,19.30
2022-08-17T05:33:06.203Z,19.55
2022-08-17T05:35:36.725Z,19.27
2022-08-17T05:38:04.905Z,18.80
2022-08-17T05:40:34.123Z,19.52
2022-08-17T05:43:07.809Z,24.83
2022-08-17T05:45:54.533Z,22.73
2022-08-17T05:48:35.613Z,24.77
2022-08-17T05:51:24.977Z,20.05
2022-08-17T05:54:02.275Z,20.30
2022-08-17T05:56:49.618Z,21.35
2022-08-17T05:59:26.413Z,20.92
2022-08-17T06:01:59.443Z,21.38
2022-08-17T06:04:32.857Z,21.35
2022-08-17T06:07:11.990Z,20.60
2022-08-17T06:09:47.906Z,19.67
2022-08-17T06:12:38.465Z,18.80
2022-08-17T06:15:23.906Z,19.08
2022-08-17T06:17:56.631Z,18.85
2022-08-17T06:20:28.744Z,20.52
2022-08-17T06:23:06.880Z,19.98
2022-08-17T06:25:39.378Z,19.23
2022-08-17T06:28:14.820Z,20.45
2022-08-17T06:30:59.845Z,20.02
2022-08-17T06:33:34.246Z,18.33
2022-08-17T06:36:15.814Z,18.15
2022-08-17T06:38:55.756Z,19.48
2022-08-17T06:41:28.937Z,23.00
2022-08-17T06:44:11.638Z,16.88
2022-08-17T06:47:09.063Z,20.20
2022-08-17T06:49:44.340Z,17.55
2022-08-17T06:52:42.136Z,14.40
2022-08-17T06:55:18.598Z,15.98
2022-08-17T06:57:50.607Z,16.25
2022-08-17T07:00:23.895Z,15.30
2022-08-17T07:02:58.438Z,16.25
2022-08-17T07:05:31.671Z,14.82
2022-08-17T07:08:05.734Z,14.30
2022-08-17T07:10:45.669Z,13.55
2022-08-17T07:13:34.883Z,12.75
2022-08-17T07:16:18.163Z,13.65
2022-08-17T07:18:47.179Z,13.30
2022-08-17T07:21:27.544Z,13.00
2022-08-17T07:24:30.162Z,12.25
2022-08-17T07:27:10.443Z,13.50
2022-08-17T07:29:41.844Z,13.13
2022-08-17T07:32:13.564Z,12.23
2022-08-17T07:35:11.306Z,11.50
2022-08-17T07:37:40.909Z,11.13
2022-08-17T07:40:35.562Z,16.83
2022-08-17T07:43:23.484Z,10.63
2022-08-17T07:46:17.191Z,11.30
2022-08-17T07:48:49.713Z,10.10
2022-08-17T07:51:25.243Z,10.38
2022-08-17T07:53:53.893Z,9.55
2022-08-17T07:56:41.248Z,9.27
2022-08-17T07:59:15.588Z,9.43
2022-08-17T08:01:48.035Z,10.48
2022-08-17T08:07:28.657Z,9.82
2022-08-17T08:10:07.766Z,9.07
2022-08-17T08:12:37.813Z,8.43
2022-08-17T08:15:15.418Z,8.38
2022-08-17T08:17:53.284Z,7.50
2022-08-17T08:20:52.072Z,7.80
2022-08-17T08:23:33.513Z,8.73
2022-08-17T08:26:18.291Z,7.60
2022-08-17T08:28:55.824Z,7.40
2022-08-17T08:31:28.866Z,7.57
2022-08-17T08:34:09.269Z,6.30
2022-08-17T08:37:17.800Z,7.07
2022-08-17T08:40:12.229Z,7.00
2022-08-17T08:42:49.952Z,6.88
2022-08-17T08:45:24.816Z,6.45
2022-08-17T08:48:12.729Z,6.72
2022-08-17T08:51:08.586Z,6.57
2022-08-17T08:53:49.668Z,7.18
2022-08-17T08:56:25.103Z,6.30
2022-08-17T08:59:01.905Z,6.13
2022-08-17T09:01:38.907Z,6.10
2022-08-17T09:04:26.053Z,8.15
2022-08-17T09:07:09.735Z,6.97
2022-08-17T09:09:48.273Z,6.72
2022-08-17T09:12:23.442Z,6.40
2022-08-17T09:14:59.560Z,7.13
2022-08-17T09:17:36.852Z,6.57
2022-08-17T09:20:11.579Z,6.22
2022-08-17T09:23:03.175Z,7.35
2022-08-17T09:25:36.229Z,6.82
2022-08-17T09:28:07.943Z,8.02
2022-08-17T09:30:42.362Z,7.32
2022-08-17T09:33:12.661Z,7.07
2022-08-17T09:35:45.406Z,6.70
2022-08-17T09:38:22.481Z,6.60
2022-08-17T09:40:57.933Z,6.45
2022-08-17T09:43:35.360Z,10.90
2022-08-17T09:46:10.351Z,7.68
2022-08-17T09:48:43.132Z,7.20
2022-08-17T09:51:16.739Z,7.00
2022-08-17T09:53:44.939Z,6.85
2022-08-17T09:56:32.790Z,7.60
2022-08-17T09:59:28.439Z,6.97
2022-08-17T10:02:30.149Z,7.68
2022-08-17T10:05:04.817Z,6.70
2022-08-17T10:07:38.116Z,6.97
2022-08-17T10:10:14.666Z,7.15
2022-08-17T10:12:53.235Z,6.70
2022-08-17T10:15:36.742Z,9.40
2022-08-17T10:18:19.981Z,7.38
2022-08-17T10:21:14.305Z,7.32
2022-08-17T10:24:03.415Z,6.78
2022-08-17T10:26:40.532Z,6.68
2022-08-17T10:29:29.518Z,6.85
2022-08-17T10:32:12.513Z,6.72
2022-08-17T10:35:16.106Z,8.13
2022-08-17T10:38:03.961Z,6.70
2022-08-17T10:40:38.222Z,6.35
2022-08-17T10:43:24.937Z,6.30
2022-08-17T10:46:27.722Z,7.40
2022-08-17T10:49:16.079Z,6.15
2022-08-17T10:51:45.964Z,6.78
2022-08-17T10:54:36.272Z,6.28
2022-08-17T10:57:24.078Z,6.32
2022-08-17T10:59:54.044Z,8.68
2022-08-17T11:02:31.585Z,15.25
2022-08-17T11:05:15.678Z,6.78
2022-08-17T11:08:05.520Z,6.38
2022-08-17T11:10:59.322Z,6.50
2022-08-17T11:13:40.997Z,6.63
2022-08-17T11:16:26.826Z,6.45
2022-08-17T11:19:28.630Z,6.28
2022-08-17T11:22:34.061Z,6.30
2022-08-17T11:25:16.770Z,7.20
2022-08-17T11:27:47.280Z,6.43
2022-08-17T11:30:36.101Z,7.82
2022-08-17T11:33:42.751Z,6.50
2022-08-17T11:36:23.215Z,6.60
2022-08-17T11:39:00.996Z,6.55
2022-08-17T11:41:39.010Z,13.32
2022-08-17T11:44:38.921Z,7.20
2022-08-17T11:47:32.877Z,13.07
2022-08-17T11:50:45.678Z,9.07
2022-08-17T11:54:03.569Z,7.15
2022-08-17T11:56:52.885Z,7.18
2022-08-17T11:59:56.002Z,7.30
2022-08-17T12:02:39.051Z,6.93
2022-08-17T12:05:32.346Z,6.68
2022-08-17T12:08:09.069Z,8.38
2022-08-17T12:10:49.944Z,7.10
2022-08-17T12:13:20.336Z,6.88
2022-08-17T12:15:52.712Z,7.15
2022-08-17T12:18:22.499Z,6.78
2022-08-17T12:21:15.623Z,7.00
2022-08-17T12:23:56.205Z,6.55
2022-08-17T12:26:27.729Z,6.88
2022-08-17T12:29:01.023Z,6.25
2022-08-17T12:31:32.486Z,6.53
2022-08-17T12:34:00.646Z,6.65
2022-08-17T12:36:29.889Z,6.35
2022-08-17T12:39:14.169Z,6.85
2022-08-17T12:41:50.849Z,6.68
2022-08-17T12:44:23.252Z,7.00
2022-08-17T12:46:54.852Z,6.78
2022-08-17T12:49:33.187Z,6.97
2022-08-17T12:52:24.645Z,6.63
2022-08-17T12:54:57.009Z,7.97
2022-08-17T12:57:28.174Z,6.82
2022-08-17T13:00:00.913Z,10.23
2022-08-17T13:02:41.011Z,8.45
2022-08-17T13:05:19.074Z,8.38
2022-08-17T13:07:47.814Z,6.35
2022-08-17T13:10:24.834Z,6.40
2022-08-17T13:12:56.150Z,37.60
2022-08-17T13:15:35.144Z,12.48
2022-08-17T13:18:07.790Z,9.02
2022-08-17T13:20:37.151Z,6.90
2022-08-17T13:23:12.391Z,8.80
2022-08-17T13:25:40.953Z,7.63
2022-08-17T13:28:30.769Z,10.75
2022-08-17T13:31:33.033Z,6.47
2022-08-17T13:34:20.329Z,6.70
2022-08-17T13:36:51.324Z,6.30
2022-08-17T13:39:21.895Z,9.68
2022-08-17T13:41:53.163Z,7.20
2022-08-17T13:44:36.997Z,6.22
2022-08-17T13:47:15.605Z,7.05
2022-08-17T13:49:48.990Z,7.57
2022-08-17T13:52:35.250Z,6.43
2022-08-17T13:55:10.025Z,6.55
2022-08-17T13:57:38.403Z,6.28
2022-08-17T14:00:13.244Z,6.63
2022-08-17T14:02:42.856Z,6.30
2022-08-17T14:05:11.022Z,6.18
2022-08-17T14:07:40.731Z,6.55
2022-08-17T14:10:14.380Z,6.20
2022-08-17T14:12:44.547Z,8.13
2022-08-17T14:15:15.366Z,5.90
2022-08-17T14:17:44.991Z,8.10
2022-08-17T14:20:14.631Z,7.00
2022-08-17T14:22:46.295Z,6.68
2022-08-17T14:25:16.587Z,8.07
2022-08-17T14:27:52.273Z,6.40
2022-08-17T14:30:23.879Z,6.10
2022-08-17T14:32:53.694Z,6.57
2022-08-17T14:35:23.976Z,6.90
2022-08-17T14:37:53.033Z,6.85
2022-08-17T14:40:24.762Z,10.25
2022-08-17T14:42:54.396Z,7.47
2022-08-17T14:45:31.494Z,6.65
2022-08-17T14:48:05.791Z,6.55
2022-08-17T14:50:35.369Z,7.10
2022-08-17T14:53:04.639Z,6.97
2022-08-17T14:55:33.665Z,9.88
2022-08-17T14:58:02.106Z,7.00
2022-08-17T15:00:30.137Z,6.60
2022-08-17T15:03:00.204Z,6.47
2022-08-17T15:05:32.550Z,7.90
2022-08-17T15:08:01.107Z,7.88
2022-08-17T15:10:30.457Z,8.70
2022-08-17T15:13:00.430Z,19.67
2022-08-17T15:15:29.559Z,14.20
2022-08-17T15:17:59.935Z,16.15
2022-08-17T15:20:31.176Z,8.90
2022-08-17T15:23:00.010Z,10.95
2022-08-17T15:25:31.883Z,12.90
2022-08-17T15:28:00.482Z,8.20
2022-08-17T15:30:29.434Z,9.90
2022-08-17T15:32:59.006Z,8.70
2022-08-17T15:35:33.535Z,8.57
2022-08-17T15:38:08.343Z,9.60
2022-08-17T15:40:46.830Z,9.30
2022-08-17T15:43:16.958Z,8.95
2022-08-17T15:45:59.983Z,9.57
2022-08-17T15:48:41.066Z,8.85
2022-08-17T15:51:13.226Z,9.70
2022-08-17T15:53:42.480Z,9.75
2022-08-17T15:56:11.319Z,8.82
2022-08-17T15:58:42.118Z,8.52
2022-08-17T16:01:14.756Z,9.43
2022-08-17T16:04:04.035Z,9.57
2022-08-17T16:06:36.464Z,9.50
2022-08-17T16:09:05.057Z,11.18
2022-08-17T16:11:33.027Z,8.73
2022-08-17T16:14:01.246Z,8.52
2022-08-17T16:16:31.367Z,8.70
2022-08-17T16:18:59.446Z,10.35
2022-08-17T16:21:31.258Z,8.00
2022-08-17T16:24:12.787Z,10.23
2022-08-17T16:26:42.420Z,9.25
2022-08-17T16:29:10.756Z,9.00
2022-08-17T16:31:41.552Z,8.73
2022-08-17T16:34:16.935Z,10.18
2022-08-17T16:36:55.150Z,9.07
2022-08-17T16:39:27.502Z,8.75
2022-08-17T16:41:56.187Z,8.90
2022-08-17T16:44:25.911Z,8.60
2022-08-17T16:46:54.155Z,8.48
2022-08-17T16:49:35.509Z,8.32
2022-08-17T16:52:05.969Z,8.57
2022-08-17T16:54:36.417Z,9.63
2022-08-17T16:57:05.561Z,8.23
2022-08-17T16:59:42.134Z,7.90
2022-08-17T17:02:15.855Z,8.13
2022-08-17T17:04:51.309Z,8.75
2022-08-17T17:07:38.868Z,8.13
2022-08-17T17:10:11.726Z,10.15
2022-08-17T17:13:01.349Z,7.38
2022-08-17T17:15:41.541Z,7.75
2022-08-17T17:18:13.413Z,8.13
2022-08-17T17:20:48.950Z,8.25
2022-08-17T17:23:33.292Z,9.00
2022-08-17T17:26:11.157Z,8.38
2022-08-17T17:28:48.836Z,8.02
2022-08-17T17:31:19.453Z,8.52
2022-08-17T17:33:50.579Z,7.95
2022-08-17T17:36:26.715Z,7.70
2022-08-17T17:38:59.270Z,7.40
2022-08-17T17:41:34.023Z,8.02
2022-08-17T17:44:05.959Z,8.95
2022-08-17T17:46:39.649Z,8.60
2022-08-17T17:49:10.195Z,7.38
2022-08-17T17:52:08.614Z,9.27
2022-08-17T17:55:01.992Z,8.70
2022-08-17T17:57:45.622Z,15.57
2022-08-17T18:00:16.661Z,12.07
2022-08-17T18:02:56.914Z,7.90
2022-08-17T18:05:46.038Z,8.52
2022-08-17T18:08:34.097Z,9.57
2022-08-17T18:11:15.265Z,10.82
2022-08-17T18:14:10.750Z,8.43
2022-08-17T18:16:42.839Z,8.20
2022-08-17T18:19:14.244Z,8.55
2022-08-17T18:21:45.976Z,8.20
2022-08-17T18:24:14.996Z,13.20
2022-08-17T18:26:51.544Z,13.18
2022-08-17T18:29:44.191Z,19.38
2022-08-17T18:32:34.877Z,11.23
2022-08-17T18:35:28.340Z,11.15
2022-08-17T18:37:58.963Z,11.95
2022-08-17T18:40:37.770Z,8.68
2022-08-17T18:43:13.447Z,7.22
2022-08-17T18:45:47.381Z,7.45
2022-08-17T18:48:23.089Z,9.02
2022-08-17T18:50:53.610Z,7.82
2022-08-17T18:53:34.060Z,8.75
2022-08-17T18:56:25.802Z,8.25
2022-08-17T18:59:06.342Z,8.85
2022-08-17T19:01:52.770Z,7.20
2022-08-17T19:04:34.807Z,5.88
2022-08-17T19:07:06.866Z,5.97
2022-08-17T19:09:38.135Z,5.43
2022-08-17T19:12:10.023Z,6.20
2022-08-17T19:14:38.391Z,6.30
2022-08-17T19:17:15.326Z,6.85
2022-08-17T19:19:51.354Z,6.70
2022-08-17T19:22:28.434Z,6.70
2022-08-17T19:25:03.962Z,6.20
2022-08-17T19:27:43.700Z,7.20
2022-08-17T19:30:16.579Z,6.65
2022-08-17T19:32:46.034Z,5.47
2022-08-17T19:35:17.562Z,5.82
2022-08-17T19:37:57.491Z,6.40
2022-08-17T19:40:52.440Z,5.55
2022-08-17T19:43:31.832Z,6.13
2022-08-17T19:46:06.170Z,5.65
2022-08-17T19:48:48.421Z,5.45
2022-08-17T19:51:21.826Z,6.57
2022-08-17T19:54:06.358Z,7.40
2022-08-17T19:56:43.563Z,7.40
2022-08-17T19:59:17.155Z,6.85
2022-08-17T20:01:52.097Z,7.47
2022-08-17T20:04:37.511Z,7.22
2022-08-17T20:07:10.976Z,7.25
2022-08-17T20:09:44.348Z,7.30
2022-08-17T20:12:17.872Z,7.43
2022-08-17T20:14:53.733Z,7.78
2022-08-17T20:17:28.420Z,8.23
2022-08-17T20:20:07.470Z,8.35
2022-08-17T20:22:54.946Z,8.85
2022-08-17T20:25:31.830Z,8.95
2022-08-17T20:28:07.497Z,8.70
2022-08-17T20:30:38.898Z,8.95
2022-08-17T20:33:12.425Z,8.02
2022-08-17T20:36:03.387Z,7.90
2022-08-17T20:38:43.702Z,7.93
2022-08-17T20:41:15.404Z,7.18
2022-08-17T20:43:49.016Z,7.63
2022-08-17T20:46:24.855Z,6.88
2022-08-17T20:48:56.506Z,6.90
2022-08-17T20:51:33.638Z,7.20
2022-08-17T20:54:23.947Z,7.32
2022-08-17T20:56:57.812Z,6.38
2022-08-17T20:59:59.459Z,7.53
2022-08-17T21:02:29.739Z,7.80
2022-08-17T21:05:08.015Z,6.43
2022-08-17T21:07:56.020Z,6.63
2022-08-17T21:10:37.788Z,6.55
2022-08-17T21:13:32.354Z,7.75
2022-08-17T21:16:08.462Z,7.07
2022-08-17T21:18:42.992Z,5.97
2022-08-17T21:21:24.080Z,6.90
2022-08-17T21:24:11.866Z,5.47
2022-08-17T21:26:52.017Z,5.60
2022-08-17T21:29:32.562Z,5.47
2022-08-17T21:32:24.361Z,5.82
2022-08-17T21:35:26.434Z,5.55
2022-08-17T21:38:02.447Z,5.22
2022-08-17T21:40:35.382Z,5.45
2022-08-17T21:43:18.250Z,6.10
2022-08-17T21:45:57.784Z,6.43
2022-08-17T21:48:27.143Z,4.97
2022-08-17T21:51:03.847Z,5.32
2022-08-17T21:53:39.280Z,5.70
2022-08-17T21:56:12.123Z,5.25
2022-08-17T21:58:46.625Z,5.40
2022-08-17T22:01:25.407Z,4.80
2022-08-17T22:04:03.374Z,5.50
2022-08-17T22:06:37.294Z,5.57
2022-08-17T22:09:16.305Z,5.30
2022-08-17T22:12:14.242Z,5.80
2022-08-17T22:14:52.198Z,6.20
2022-08-17T22:17:24.903Z,6.30
2022-08-17T22:19:55.173Z,5.28
2022-08-17T22:22:30.394Z,5.75
2022-08-17T22:25:01.799Z,6.07
2022-08-17T22:27:48.868Z,5.53
2022-08-17T22:30:28.298Z,6.03
2022-08-17T22:32:57.223Z,4.97
2022-08-17T22:35:33.675Z,5.35
2022-08-17T22:38:26.568Z,5.10
2022-08-17T22:40:56.840Z,4.63
2022-08-17T22:43:31.394Z,5.22
2022-08-17T22:46:02.997Z,4.63
2022-08-17T22:48:31.497Z,4.38
2022-08-17T22:51:13.669Z,4.75
2022-08-17T22:54:05.062Z,4.68
2022-08-17T22:56:50.864Z,4.50
2022-08-17T22:59:43.861Z,4.15
2022-08-17T23:02:30.560Z,4.30
2022-08-17T23:05:21.494Z,4.28
2022-08-17T23:07:53.848Z,4.35
2022-08-17T23:10:21.838Z,4.25
2022-08-17T23:12:49.832Z,4.63
2022-08-17T23:15:20.213Z,4.57
2022-08-17T23:17:48.470Z,5.00
2022-08-17T23:20:17.953Z,4.68
2022-08-17T23:22:52.312Z,5.20
2022-08-17T23:25:26.580Z,4.45
2022-08-17T23:27:55.110Z,4.78
2022-08-17T23:30:25.533Z,7.03
2022-08-17T23:32:54.518Z,6.72
2022-08-17T23:35:38.982Z,4.85
2022-08-17T23:38:09.843Z,4.38
2022-08-17T23:40:39.595Z,3.83
2022-08-17T23:43:23.894Z,4.78
2022-08-17T23:45:55.217Z,3.90
2022-08-17T23:48:35.844Z,3.60
2022-08-17T23:51:09.212Z,3.63
2022-08-17T23:53:40.373Z,3.85
2022-08-17T23:56:11.183Z,4.13
2022-08-17T23:58:43.892Z,3.53
